Hovedside
METAR-TAF:

METAR-TAF

Lufthavner :

Guararapes internasjonale lufthavn

Recife, Pernambuco, Brasil

breddegrad: 08-08S, lengdegrad: 034-55W, høyde over havet: 19 m

Gjeldene værobservasjon

Denne rapporten ble laget for 15 minutter siden, klokken 01:00 UTC
Vind 7 kt fra Øst-nordøst
Temperatur 27°C
Luftfuktighet 74%
Trykk 1010 hPa
Sikt 10 km eller mer
Brutte skyer i en høyde av 2200 ft

METAR: SBRF 170100Z 06007KT 9999 BKN022 27/22 Q1010

Tid: 22:15 (01:15 UTC)

Varsel

Denne rapporten ble laget for 3 timer og 15 minutter siden, klokken 22:00 UTC
Varsel gyldig fra 17. klokken 00 UTC til 17. klokken 24 UTC
Vind 10 kt fra Øst
Sikt 10 km eller mer
Spredte skyer i en høyde av 2500 ft
Blir
fra 17. klokken 03 UTC til 17. klokken 05 UTC
Vind 8 kt fra Øst-nordøst
Blir
fra 17. klokken 14 UTC til 17. klokken 16 UTC
Vind 10 kt fra Øst

TAF: SBRF 162200Z 1700/1724 09010KT 9999 SCT025 TN26/1705Z TX30/1714Z BECMG 1703/1705 06008KT BECMG 1714/1716 10010KT RMK PEH

Værobservasjoner og værvarsel for over 4000 flyplasser (METAR- og TAF-rapporter).

Tilgjengelige stasjoner er representert av de røde og gule prikkene på kartet.

Hold musepekeren over prikken for å se navnet på stasjonen.

Klikk så for å se værobservasjoner og -varsler.

For å forandre kartet kan du klikke på den grønne knappen med svart kryss for å zoome inn, på den grønne knappen med strek for å zoome ut, eller på de grønne pilene for å se tilstøtende kart.


METAR-TAF: